sensor_id;sensor_type;location;lat;lon;timestamp;P1;durP1;ratioP1;P2;durP2;ratioP2
48987;SDS011;34799;51.440;-2.534;2022-09-14T00:01:10;3.97;;;1.80;;
48987;SDS011;34799;51.440;-2.534;2022-09-14T00:03:51;3.67;;;2.05;;
48987;SDS011;34799;51.440;-2.534;2022-09-14T00:06:22;5.45;;;1.95;;
48987;SDS011;34799;51.440;-2.534;2022-09-14T00:08:51;7.07;;;2.00;;
48987;SDS011;34799;51.440;-2.534;2022-09-14T00:11:20;5.35;;;2.35;;
48987;SDS011;34799;51.440;-2.534;2022-09-14T00:13:49;5.28;;;1.90;;
48987;SDS011;34799;51.440;-2.534;2022-09-14T00:16:18;5.70;;;1.95;;
48987;SDS011;34799;51.440;-2.534;2022-09-14T00:18:52;5.03;;;1.88;;
48987;SDS011;34799;51.440;-2.534;2022-09-14T00:21:21;8.10;;;2.08;;
48987;SDS011;34799;51.440;-2.534;2022-09-14T00:23:49;2.78;;;1.95;;
48987;SDS011;34799;51.440;-2.534;2022-09-14T00:26:17;4.40;;;2.05;;
48987;SDS011;34799;51.440;-2.534;2022-09-14T00:28:48;4.22;;;2.30;;
48987;SDS011;34799;51.440;-2.534;2022-09-14T00:31:19;5.40;;;2.05;;
48987;SDS011;34799;51.440;-2.534;2022-09-14T00:33:46;3.75;;;1.88;;
48987;SDS011;34799;51.440;-2.534;2022-09-14T00:36:16;3.85;;;2.20;;
48987;SDS011;34799;51.440;-2.534;2022-09-14T00:38:46;5.40;;;2.28;;
48987;SDS011;34799;51.440;-2.534;2022-09-14T00:41:16;6.90;;;2.38;;
48987;SDS011;34799;51.440;-2.534;2022-09-14T00:43:56;4.03;;;2.20;;
48987;SDS011;34799;51.440;-2.534;2022-09-14T00:46:34;6.28;;;1.80;;
48987;SDS011;34799;51.440;-2.534;2022-09-14T00:51:48;4.43;;;1.85;;
48987;SDS011;34799;51.440;-2.534;2022-09-14T00:54:35;5.70;;;2.10;;
48987;SDS011;34799;51.440;-2.534;2022-09-14T00:57:07;6.55;;;2.60;;
48987;SDS011;34799;51.440;-2.534;2022-09-14T00:59:35;3.55;;;1.80;;
48987;SDS011;34799;51.440;-2.534;2022-09-14T01:02:04;4.75;;;1.88;;
48987;SDS011;34799;51.440;-2.534;2022-09-14T01:04:34;4.13;;;1.80;;
48987;SDS011;34799;51.440;-2.534;2022-09-14T01:17:38;3.10;;;1.80;;
48987;SDS011;34799;51.440;-2.534;2022-09-14T01:20:29;4.13;;;1.75;;
48987;SDS011;34799;51.440;-2.534;2022-09-14T01:23:16;4.95;;;1.75;;
48987;SDS011;34799;51.440;-2.534;2022-09-14T01:26:10;6.50;;;1.50;;
48987;SDS011;34799;51.440;-2.534;2022-09-14T01:28:52;4.38;;;1.90;;
48987;SDS011;34799;51.440;-2.534;2022-09-14T01:31:24;2.47;;;1.42;;
48987;SDS011;34799;51.440;-2.534;2022-09-14T01:34:11;6.40;;;2.30;;
48987;SDS011;34799;51.440;-2.534;2022-09-14T01:36:45;3.92;;;1.60;;
48987;SDS011;34799;51.440;-2.534;2022-09-14T01:39:18;5.43;;;1.75;;
48987;SDS011;34799;51.440;-2.534;2022-09-14T01:41:49;7.28;;;1.92;;
48987;SDS011;34799;51.440;-2.534;2022-09-14T01:44:20;3.25;;;1.50;;
48987;SDS011;34799;51.440;-2.534;2022-09-14T01:46:54;4.55;;;1.38;;
48987;SDS011;34799;51.440;-2.534;2022-09-14T01:49:33;3.13;;;1.40;;
48987;SDS011;34799;51.440;-2.534;2022-09-14T01:52:07;3.80;;;1.48;;
48987;SDS011;34799;51.440;-2.534;2022-09-14T01:57:35;3.25;;;1.25;;
48987;SDS011;34799;51.440;-2.534;2022-09-14T02:00:08;5.15;;;1.15;;
48987;SDS011;34799;51.440;-2.534;2022-09-14T02:02:57;4.38;;;1.20;;
48987;SDS011;34799;51.440;-2.534;2022-09-14T02:05:40;5.18;;;1.27;;
48987;SDS011;34799;51.440;-2.534;2022-09-14T02:08:11;3.42;;;1.45;;
48987;SDS011;34799;51.440;-2.534;2022-09-14T02:10:38;6.25;;;1.50;;
48987;SDS011;34799;51.440;-2.534;2022-09-14T02:13:06;6.30;;;1.90;;
48987;SDS011;34799;51.440;-2.534;2022-09-14T02:15:34;6.60;;;2.42;;
48987;SDS011;34799;51.440;-2.534;2022-09-14T02:18:03;8.32;;;3.33;;
48987;SDS011;34799;51.440;-2.534;2022-09-14T02:20:32;6.93;;;3.35;;
48987;SDS011;34799;51.440;-2.534;2022-09-14T02:23:07;7.60;;;3.42;;
48987;SDS011;34799;51.440;-2.534;2022-09-14T02:25:36;9.10;;;3.45;;
48987;SDS011;34799;51.440;-2.534;2022-09-14T02:28:06;7.22;;;3.95;;
48987;SDS011;34799;51.440;-2.534;2022-09-14T02:31:01;9.15;;;3.60;;
48987;SDS011;34799;51.440;-2.534;2022-09-14T02:36:44;9.50;;;4.88;;
48987;SDS011;34799;51.440;-2.534;2022-09-14T02:39:34;13.90;;;5.18;;
48987;SDS011;34799;51.440;-2.534;2022-09-14T02:42:13;11.57;;;4.70;;
48987;SDS011;34799;51.440;-2.534;2022-09-14T02:45:16;12.68;;;5.22;;
48987;SDS011;34799;51.440;-2.534;2022-09-14T02:50:39;11.30;;;4.85;;
48987;SDS011;34799;51.440;-2.534;2022-09-14T02:56:16;13.93;;;5.22;;
48987;SDS011;34799;51.440;-2.534;2022-09-14T02:58:44;11.43;;;6.20;;
48987;SDS011;34799;51.440;-2.534;2022-09-14T03:01:13;14.50;;;6.00;;
48987;SDS011;34799;51.440;-2.534;2022-09-14T03:03:42;10.95;;;6.20;;
48987;SDS011;34799;51.440;-2.534;2022-09-14T03:06:09;11.13;;;6.47;;
48987;SDS011;34799;51.440;-2.534;2022-09-14T03:08:37;11.25;;;7.15;;
48987;SDS011;34799;51.440;-2.534;2022-09-14T03:11:04;10.27;;;6.47;;
48987;SDS011;34799;51.440;-2.534;2022-09-14T03:13:34;9.75;;;6.32;;
48987;SDS011;34799;51.440;-2.534;2022-09-14T03:16:08;14.20;;;6.47;;
48987;SDS011;34799;51.440;-2.534;2022-09-14T03:18:37;9.70;;;5.90;;
48987;SDS011;34799;51.440;-2.534;2022-09-14T03:21:06;12.48;;;6.60;;
48987;SDS011;34799;51.440;-2.534;2022-09-14T03:23:36;12.35;;;6.38;;
48987;SDS011;34799;51.440;-2.534;2022-09-14T03:26:11;13.27;;;7.05;;
48987;SDS011;34799;51.440;-2.534;2022-09-14T03:28:39;12.57;;;6.88;;
48987;SDS011;34799;51.440;-2.534;2022-09-14T03:31:07;13.95;;;7.28;;
48987;SDS011;34799;51.440;-2.534;2022-09-14T03:33:37;13.68;;;7.85;;
48987;SDS011;34799;51.440;-2.534;2022-09-14T03:36:08;11.85;;;7.00;;
48987;SDS011;34799;51.440;-2.534;2022-09-14T03:38:38;13.13;;;6.75;;
48987;SDS011;34799;51.440;-2.534;2022-09-14T03:41:08;11.30;;;6.85;;
48987;SDS011;34799;51.440;-2.534;2022-09-14T03:43:37;13.40;;;7.03;;
48987;SDS011;34799;51.440;-2.534;2022-09-14T03:46:08;11.02;;;6.88;;
48987;SDS011;34799;51.440;-2.534;2022-09-14T03:48:37;14.48;;;7.22;;
48987;SDS011;34799;51.440;-2.534;2022-09-14T03:51:06;12.73;;;7.50;;
48987;SDS011;34799;51.440;-2.534;2022-09-14T03:53:34;15.23;;;7.32;;
48987;SDS011;34799;51.440;-2.534;2022-09-14T03:56:07;14.20;;;7.05;;
48987;SDS011;34799;51.440;-2.534;2022-09-14T03:58:36;11.80;;;6.97;;
48987;SDS011;34799;51.440;-2.534;2022-09-14T04:01:05;10.40;;;6.95;;
48987;SDS011;34799;51.440;-2.534;2022-09-14T04:03:34;12.98;;;6.80;;
48987;SDS011;34799;51.440;-2.534;2022-09-14T04:06:02;9.77;;;6.47;;
48987;SDS011;34799;51.440;-2.534;2022-09-14T04:08:32;11.25;;;6.90;;
48987;SDS011;34799;51.440;-2.534;2022-09-14T04:11:04;13.55;;;6.72;;
48987;SDS011;34799;51.440;-2.534;2022-09-14T04:13:41;12.23;;;7.57;;
48987;SDS011;34799;51.440;-2.534;2022-09-14T04:16:09;13.88;;;7.82;;
48987;SDS011;34799;51.440;-2.534;2022-09-14T04:18:36;12.90;;;7.22;;
48987;SDS011;34799;51.440;-2.534;2022-09-14T04:21:05;12.05;;;6.75;;
48987;SDS011;34799;51.440;-2.534;2022-09-14T04:23:42;14.20;;;7.60;;
48987;SDS011;34799;51.440;-2.534;2022-09-14T04:26:30;13.70;;;7.63;;
48987;SDS011;34799;51.440;-2.534;2022-09-14T04:28:58;12.43;;;6.95;;
48987;SDS011;34799;51.440;-2.534;2022-09-14T04:31:26;17.00;;;8.10;;
48987;SDS011;34799;51.440;-2.534;2022-09-14T04:33:54;13.43;;;7.28;;
48987;SDS011;34799;51.440;-2.534;2022-09-14T04:36:22;13.48;;;7.13;;
48987;SDS011;34799;51.440;-2.534;2022-09-14T04:38:54;13.13;;;7.50;;
48987;SDS011;34799;51.440;-2.534;2022-09-14T04:41:22;12.82;;;7.22;;
48987;SDS011;34799;51.440;-2.534;2022-09-14T04:43:50;10.57;;;6.90;;
48987;SDS011;34799;51.440;-2.534;2022-09-14T04:46:23;14.00;;;8.15;;
48987;SDS011;34799;51.440;-2.534;2022-09-14T04:48:56;10.48;;;6.53;;
48987;SDS011;34799;51.440;-2.534;2022-09-14T04:51:26;13.90;;;7.15;;
48987;SDS011;34799;51.440;-2.534;2022-09-14T04:53:56;13.90;;;7.90;;
48987;SDS011;34799;51.440;-2.534;2022-09-14T04:56:25;13.50;;;7.65;;
48987;SDS011;34799;51.440;-2.534;2022-09-14T04:58:55;16.80;;;7.45;;
48987;SDS011;34799;51.440;-2.534;2022-09-14T05:01:25;11.68;;;6.80;;
48987;SDS011;34799;51.440;-2.534;2022-09-14T05:03:55;12.20;;;7.43;;
48987;SDS011;34799;51.440;-2.534;2022-09-14T05:06:24;13.70;;;7.63;;
48987;SDS011;34799;51.440;-2.534;2022-09-14T05:08:53;12.65;;;7.18;;
48987;SDS011;34799;51.440;-2.534;2022-09-14T05:11:25;13.55;;;7.15;;
48987;SDS011;34799;51.440;-2.534;2022-09-14T05:13:56;12.88;;;7.38;;
48987;SDS011;34799;51.440;-2.534;2022-09-14T05:16:25;14.70;;;7.65;;
48987;SDS011;34799;51.440;-2.534;2022-09-14T05:18:55;13.20;;;7.60;;
48987;SDS011;34799;51.440;-2.534;2022-09-14T05:21:24;12.43;;;7.85;;
48987;SDS011;34799;51.440;-2.534;2022-09-14T05:23:54;12.45;;;7.28;;
48987;SDS011;34799;51.440;-2.534;2022-09-14T05:26:24;14.57;;;7.47;;
48987;SDS011;34799;51.440;-2.534;2022-09-14T05:28:53;14.25;;;7.80;;
48987;SDS011;34799;51.440;-2.534;2022-09-14T05:31:24;14.55;;;7.43;;
48987;SDS011;34799;51.440;-2.534;2022-09-14T05:33:53;13.40;;;7.65;;
48987;SDS011;34799;51.440;-2.534;2022-09-14T05:36:20;15.88;;;8.25;;
48987;SDS011;34799;51.440;-2.534;2022-09-14T05:38:47;13.07;;;7.32;;
48987;SDS011;34799;51.440;-2.534;2022-09-14T05:41:15;14.05;;;8.20;;
48987;SDS011;34799;51.440;-2.534;2022-09-14T05:43:43;15.95;;;7.78;;
48987;SDS011;34799;51.440;-2.534;2022-09-14T05:46:11;14.80;;;7.45;;
48987;SDS011;34799;51.440;-2.534;2022-09-14T05:48:39;16.67;;;8.30;;
48987;SDS011;34799;51.440;-2.534;2022-09-14T05:51:11;17.05;;;8.18;;
48987;SDS011;34799;51.440;-2.534;2022-09-14T05:53:46;18.08;;;8.27;;
48987;SDS011;34799;51.440;-2.534;2022-09-14T05:56:18;17.23;;;7.90;;
48987;SDS011;34799;51.440;-2.534;2022-09-14T05:58:46;18.85;;;8.05;;
48987;SDS011;34799;51.440;-2.534;2022-09-14T06:01:18;19.30;;;8.40;;
48987;SDS011;34799;51.440;-2.534;2022-09-14T06:03:53;15.00;;;8.23;;
48987;SDS011;34799;51.440;-2.534;2022-09-14T06:06:21;17.25;;;8.02;;
48987;SDS011;34799;51.440;-2.534;2022-09-14T06:08:49;16.95;;;7.35;;
48987;SDS011;34799;51.440;-2.534;2022-09-14T06:11:20;11.55;;;7.03;;
48987;SDS011;34799;51.440;-2.534;2022-09-14T06:13:49;11.30;;;7.18;;
48987;SDS011;34799;51.440;-2.534;2022-09-14T06:16:17;14.75;;;7.63;;
48987;SDS011;34799;51.440;-2.534;2022-09-14T06:18:46;13.98;;;7.00;;
48987;SDS011;34799;51.440;-2.534;2022-09-14T06:21:15;13.82;;;7.35;;
48987;SDS011;34799;51.440;-2.534;2022-09-14T06:23:46;12.55;;;6.88;;
48987;SDS011;34799;51.440;-2.534;2022-09-14T06:26:14;14.75;;;7.03;;
48987;SDS011;34799;51.440;-2.534;2022-09-14T06:28:41;14.50;;;6.68;;
48987;SDS011;34799;51.440;-2.534;2022-09-14T06:31:12;17.50;;;7.38;;
48987;SDS011;34799;51.440;-2.534;2022-09-14T06:33:43;16.15;;;7.70;;
48987;SDS011;34799;51.440;-2.534;2022-09-14T06:36:13;17.02;;;7.43;;
48987;SDS011;34799;51.440;-2.534;2022-09-14T06:38:43;13.10;;;6.82;;
48987;SDS011;34799;51.440;-2.534;2022-09-14T06:41:11;15.13;;;7.68;;
48987;SDS011;34799;51.440;-2.534;2022-09-14T06:43:43;12.52;;;6.85;;
48987;SDS011;34799;51.440;-2.534;2022-09-14T06:48:42;17.02;;;7.40;;
48987;SDS011;34799;51.440;-2.534;2022-09-14T06:51:16;11.63;;;6.55;;
48987;SDS011;34799;51.440;-2.534;2022-09-14T06:53:51;13.85;;;6.47;;
48987;SDS011;34799;51.440;-2.534;2022-09-14T06:56:19;12.77;;;7.45;;
48987;SDS011;34799;51.440;-2.534;2022-09-14T06:58:46;14.32;;;6.97;;
48987;SDS011;34799;51.440;-2.534;2022-09-14T07:01:16;14.52;;;6.75;;
48987;SDS011;34799;51.440;-2.534;2022-09-14T07:03:45;13.25;;;6.50;;
48987;SDS011;34799;51.440;-2.534;2022-09-14T07:06:14;12.55;;;7.05;;
48987;SDS011;34799;51.440;-2.534;2022-09-14T07:08:45;13.80;;;7.00;;
48987;SDS011;34799;51.440;-2.534;2022-09-14T07:11:13;13.13;;;6.70;;
48987;SDS011;34799;51.440;-2.534;2022-09-14T07:13:43;13.40;;;6.25;;
48987;SDS011;34799;51.440;-2.534;2022-09-14T07:16:11;13.05;;;5.70;;
48987;SDS011;34799;51.440;-2.534;2022-09-14T07:18:38;14.45;;;6.28;;
48987;SDS011;34799;51.440;-2.534;2022-09-14T07:21:09;13.13;;;6.72;;
48987;SDS011;34799;51.440;-2.534;2022-09-14T07:23:38;13.75;;;6.32;;
48987;SDS011;34799;51.440;-2.534;2022-09-14T07:26:09;15.20;;;6.20;;
48987;SDS011;34799;51.440;-2.534;2022-09-14T07:28:44;12.48;;;6.00;;
48987;SDS011;34799;51.440;-2.534;2022-09-14T07:31:14;10.95;;;5.55;;
48987;SDS011;34799;51.440;-2.534;2022-09-14T07:33:47;10.02;;;5.10;;
48987;SDS011;34799;51.440;-2.534;2022-09-14T07:36:19;14.13;;;5.35;;
48987;SDS011;34799;51.440;-2.534;2022-09-14T07:38:47;10.90;;;5.03;;
48987;SDS011;34799;51.440;-2.534;2022-09-14T07:41:17;10.95;;;5.15;;
48987;SDS011;34799;51.440;-2.534;2022-09-14T07:43:53;15.10;;;5.97;;
48987;SDS011;34799;51.440;-2.534;2022-09-14T07:46:22;11.13;;;5.18;;
48987;SDS011;34799;51.440;-2.534;2022-09-14T07:48:53;11.18;;;4.47;;
48987;SDS011;34799;51.440;-2.534;2022-09-14T07:51:23;7.65;;;3.80;;
48987;SDS011;34799;51.440;-2.534;2022-09-14T07:53:50;9.15;;;3.67;;
48987;SDS011;34799;51.440;-2.534;2022-09-14T07:56:17;7.93;;;3.03;;
48987;SDS011;34799;51.440;-2.534;2022-09-14T07:58:46;8.45;;;3.10;;
48987;SDS011;34799;51.440;-2.534;2022-09-14T08:01:16;10.02;;;3.00;;
48987;SDS011;34799;51.440;-2.534;2022-09-14T08:03:44;5.93;;;2.90;;
48987;SDS011;34799;51.440;-2.534;2022-09-14T08:06:14;7.90;;;2.83;;
48987;SDS011;34799;51.440;-2.534;2022-09-14T08:08:48;10.18;;;3.15;;
48987;SDS011;34799;51.440;-2.534;2022-09-14T08:11:18;8.27;;;3.00;;
48987;SDS011;34799;51.440;-2.534;2022-09-14T08:13:49;9.50;;;3.15;;
48987;SDS011;34799;51.440;-2.534;2022-09-14T08:16:18;7.47;;;2.78;;
48987;SDS011;34799;51.440;-2.534;2022-09-14T08:18:46;8.23;;;3.25;;
48987;SDS011;34799;51.440;-2.534;2022-09-14T08:21:14;11.23;;;3.08;;
48987;SDS011;34799;51.440;-2.534;2022-09-14T08:23:42;8.98;;;4.53;;
48987;SDS011;34799;51.440;-2.534;2022-09-14T08:26:11;9.40;;;3.65;;
48987;SDS011;34799;51.440;-2.534;2022-09-14T08:28:41;9.05;;;3.67;;
48987;SDS011;34799;51.440;-2.534;2022-09-14T08:31:14;9.63;;;4.13;;
48987;SDS011;34799;51.440;-2.534;2022-09-14T08:33:51;8.00;;;4.15;;
48987;SDS011;34799;51.440;-2.534;2022-09-14T08:36:20;9.27;;;4.28;;
48987;SDS011;34799;51.440;-2.534;2022-09-14T08:38:49;13.68;;;4.32;;
48987;SDS011;34799;51.440;-2.534;2022-09-14T08:44:44;9.27;;;4.25;;
48987;SDS011;34799;51.440;-2.534;2022-09-14T08:47:30;8.73;;;4.47;;
48987;SDS011;34799;51.440;-2.534;2022-09-14T08:50:08;10.98;;;5.07;;
48987;SDS011;34799;51.440;-2.534;2022-09-14T08:52:41;8.48;;;4.97;;
48987;SDS011;34799;51.440;-2.534;2022-09-14T09:03:42;9.45;;;5.53;;
48987;SDS011;34799;51.440;-2.534;2022-09-14T09:06:31;10.85;;;5.00;;
48987;SDS011;34799;51.440;-2.534;2022-09-14T09:11:49;14.10;;;5.80;;
48987;SDS011;34799;51.440;-2.534;2022-09-14T09:14:30;13.00;;;5.60;;
48987;SDS011;34799;51.440;-2.534;2022-09-14T09:17:38;14.48;;;5.50;;
48987;SDS011;34799;51.440;-2.534;2022-09-14T09:20:09;13.00;;;6.13;;
48987;SDS011;34799;51.440;-2.534;2022-09-14T09:22:45;11.13;;;5.85;;
48987;SDS011;34799;51.440;-2.534;2022-09-14T09:25:20;12.35;;;6.05;;
48987;SDS011;34799;51.440;-2.534;2022-09-14T09:27:50;13.45;;;5.82;;
48987;SDS011;34799;51.440;-2.534;2022-09-14T09:30:23;12.60;;;6.18;;
48987;SDS011;34799;51.440;-2.534;2022-09-14T09:32:51;15.27;;;6.57;;
48987;SDS011;34799;51.440;-2.534;2022-09-14T09:35:37;14.60;;;6.10;;
48987;SDS011;34799;51.440;-2.534;2022-09-14T09:38:22;12.27;;;6.60;;
48987;SDS011;34799;51.440;-2.534;2022-09-14T09:40:53;13.15;;;5.72;;
48987;SDS011;34799;51.440;-2.534;2022-09-14T09:43:22;13.52;;;5.88;;
48987;SDS011;34799;51.440;-2.534;2022-09-14T09:46:06;14.15;;;6.63;;
48987;SDS011;34799;51.440;-2.534;2022-09-14T09:51:06;13.65;;;6.88;;
48987;SDS011;34799;51.440;-2.534;2022-09-14T09:53:45;12.98;;;5.78;;
48987;SDS011;34799;51.440;-2.534;2022-09-14T09:56:23;11.48;;;5.20;;
48987;SDS011;34799;51.440;-2.534;2022-09-14T09:58:53;12.13;;;6.07;;
48987;SDS011;34799;51.440;-2.534;2022-09-14T10:01:31;14.80;;;6.50;;
48987;SDS011;34799;51.440;-2.534;2022-09-14T10:04:02;14.60;;;5.93;;
48987;SDS011;34799;51.440;-2.534;2022-09-14T10:06:45;11.52;;;5.60;;
48987;SDS011;34799;51.440;-2.534;2022-09-14T10:09:14;14.27;;;6.25;;
48987;SDS011;34799;51.440;-2.534;2022-09-14T10:12:01;10.52;;;6.22;;
48987;SDS011;34799;51.440;-2.534;2022-09-14T10:17:16;14.38;;;5.63;;
48987;SDS011;34799;51.440;-2.534;2022-09-14T10:19:52;13.77;;;5.80;;
48987;SDS011;34799;51.440;-2.534;2022-09-14T10:22:30;12.85;;;6.85;;
48987;SDS011;34799;51.440;-2.534;2022-09-14T10:27:37;12.70;;;6.03;;
48987;SDS011;34799;51.440;-2.534;2022-09-14T10:33:45;11.82;;;5.68;;
48987;SDS011;34799;51.440;-2.534;2022-09-14T10:47:12;12.45;;;5.35;;
48987;SDS011;34799;51.440;-2.534;2022-09-14T11:01:02;11.43;;;5.22;;
48987;SDS011;34799;51.440;-2.534;2022-09-14T11:06:53;10.40;;;5.35;;
48987;SDS011;34799;51.440;-2.534;2022-09-14T11:09:37;11.77;;;5.75;;
48987;SDS011;34799;51.440;-2.534;2022-09-14T11:12:21;11.95;;;5.15;;
48987;SDS011;34799;51.440;-2.534;2022-09-14T11:23:53;12.48;;;4.97;;
48987;SDS011;34799;51.440;-2.534;2022-09-14T11:26:29;12.50;;;4.88;;
48987;SDS011;34799;51.440;-2.534;2022-09-14T11:29:51;9.25;;;5.78;;
48987;SDS011;34799;51.440;-2.534;2022-09-14T11:34:47;13.75;;;6.28;;
48987;SDS011;34799;51.440;-2.534;2022-09-14T11:37:26;10.40;;;4.72;;
48987;SDS011;34799;51.440;-2.534;2022-09-14T11:40:04;8.38;;;4.50;;
48987;SDS011;34799;51.440;-2.534;2022-09-14T11:45:21;12.80;;;5.00;;
48987;SDS011;34799;51.440;-2.534;2022-09-14T11:47:56;9.05;;;4.93;;
48987;SDS011;34799;51.440;-2.534;2022-09-14T11:50:33;13.15;;;5.88;;
48987;SDS011;34799;51.440;-2.534;2022-09-14T11:53:08;10.55;;;5.43;;
48987;SDS011;34799;51.440;-2.534;2022-09-14T11:55:42;10.38;;;4.50;;
48987;SDS011;34799;51.440;-2.534;2022-09-14T11:58:20;11.65;;;4.70;;
48987;SDS011;34799;51.440;-2.534;2022-09-14T12:09:30;11.55;;;5.07;;
48987;SDS011;34799;51.440;-2.534;2022-09-14T12:11:57;8.80;;;4.78;;
48987;SDS011;34799;51.440;-2.534;2022-09-14T12:20:23;7.20;;;4.13;;
48987;SDS011;34799;51.440;-2.534;2022-09-14T12:25:51;7.32;;;4.28;;
48987;SDS011;34799;51.440;-2.534;2022-09-14T12:28:46;9.38;;;4.05;;
48987;SDS011;34799;51.440;-2.534;2022-09-14T12:31:36;11.45;;;3.80;;
48987;SDS011;34799;51.440;-2.534;2022-09-14T12:34:22;8.75;;;3.92;;
48987;SDS011;34799;51.440;-2.534;2022-09-14T12:36:56;10.60;;;3.95;;
48987;SDS011;34799;51.440;-2.534;2022-09-14T12:40:10;7.53;;;3.53;;
48987;SDS011;34799;51.440;-2.534;2022-09-14T12:43:45;9.02;;;3.58;;
48987;SDS011;34799;51.440;-2.534;2022-09-14T12:46:08;10.23;;;3.88;;
48987;SDS011;34799;51.440;-2.534;2022-09-14T12:54:14;7.00;;;3.42;;
48987;SDS011;34799;51.440;-2.534;2022-09-14T12:56:57;8.07;;;3.72;;
48987;SDS011;34799;51.440;-2.534;2022-09-14T12:59:41;8.50;;;3.45;;
48987;SDS011;34799;51.440;-2.534;2022-09-14T13:02:43;9.15;;;3.63;;
48987;SDS011;34799;51.440;-2.534;2022-09-14T13:05:24;6.75;;;3.25;;
48987;SDS011;34799;51.440;-2.534;2022-09-14T13:07:53;7.70;;;3.47;;
48987;SDS011;34799;51.440;-2.534;2022-09-14T13:12:51;7.85;;;3.33;;
48987;SDS011;34799;51.440;-2.534;2022-09-14T13:18:04;8.77;;;3.10;;
48987;SDS011;34799;51.440;-2.534;2022-09-14T13:20:56;6.63;;;2.47;;
48987;SDS011;34799;51.440;-2.534;2022-09-14T13:23:29;5.72;;;2.50;;
48987;SDS011;34799;51.440;-2.534;2022-09-14T13:26:07;7.53;;;3.35;;
48987;SDS011;34799;51.440;-2.534;2022-09-14T13:28:37;8.35;;;3.05;;
48987;SDS011;34799;51.440;-2.534;2022-09-14T13:31:12;9.40;;;3.40;;
48987;SDS011;34799;51.440;-2.534;2022-09-14T13:33:49;7.22;;;3.03;;
48987;SDS011;34799;51.440;-2.534;2022-09-14T13:36:19;7.93;;;2.72;;
48987;SDS011;34799;51.440;-2.534;2022-09-14T13:38:50;4.40;;;2.00;;
48987;SDS011;34799;51.440;-2.534;2022-09-14T13:41:18;4.18;;;2.22;;
48987;SDS011;34799;51.440;-2.534;2022-09-14T13:43:49;5.75;;;1.90;;
48987;SDS011;34799;51.440;-2.534;2022-09-14T13:46:20;5.38;;;2.60;;
48987;SDS011;34799;51.440;-2.534;2022-09-14T13:48:49;7.45;;;1.92;;
48987;SDS011;34799;51.440;-2.534;2022-09-14T13:51:21;8.23;;;2.67;;
48987;SDS011;34799;51.440;-2.534;2022-09-14T13:53:54;10.15;;;2.90;;
48987;SDS011;34799;51.440;-2.534;2022-09-14T14:01:38;5.50;;;2.28;;
48987;SDS011;34799;51.440;-2.534;2022-09-14T14:12:08;7.75;;;1.85;;
48987;SDS011;34799;51.440;-2.534;2022-09-14T14:14:56;4.55;;;1.75;;
48987;SDS011;34799;51.440;-2.534;2022-09-14T14:17:33;5.60;;;1.85;;
48987;SDS011;34799;51.440;-2.534;2022-09-14T14:25:36;4.20;;;1.60;;
48987;SDS011;34799;51.440;-2.534;2022-09-14T14:28:14;8.25;;;2.30;;
48987;SDS011;34799;51.440;-2.534;2022-09-14T14:30:45;2.78;;;1.50;;
48987;SDS011;34799;51.440;-2.534;2022-09-14T14:33:13;5.30;;;1.38;;
48987;SDS011;34799;51.440;-2.534;2022-09-14T14:35:45;5.40;;;1.10;;
48987;SDS011;34799;51.440;-2.534;2022-09-14T14:38:14;3.33;;;1.30;;
48987;SDS011;34799;51.440;-2.534;2022-09-14T14:40:42;5.65;;;1.10;;
48987;SDS011;34799;51.440;-2.534;2022-09-14T14:43:18;1.77;;;0.90;;
48987;SDS011;34799;51.440;-2.534;2022-09-14T14:45:47;3.90;;;1.80;;
48987;SDS011;34799;51.440;-2.534;2022-09-14T14:48:19;3.20;;;1.13;;
48987;SDS011;34799;51.440;-2.534;2022-09-14T14:50:46;4.72;;;1.08;;
48987;SDS011;34799;51.440;-2.534;2022-09-14T14:53:14;4.03;;;0.75;;
48987;SDS011;34799;51.440;-2.534;2022-09-14T14:55:41;7.15;;;1.00;;
48987;SDS011;34799;51.440;-2.534;2022-09-14T14:58:12;3.85;;;1.00;;
48987;SDS011;34799;51.440;-2.534;2022-09-14T15:00:42;3.47;;;0.90;;
48987;SDS011;34799;51.440;-2.534;2022-09-14T15:03:10;2.78;;;0.95;;
48987;SDS011;34799;51.440;-2.534;2022-09-14T15:05:41;6.13;;;0.80;;
48987;SDS011;34799;51.440;-2.534;2022-09-14T15:08:11;3.20;;;0.70;;
48987;SDS011;34799;51.440;-2.534;2022-09-14T15:10:40;5.50;;;0.88;;
48987;SDS011;34799;51.440;-2.534;2022-09-14T15:13:08;8.02;;;1.05;;
48987;SDS011;34799;51.440;-2.534;2022-09-14T15:15:38;4.20;;;1.25;;
48987;SDS011;34799;51.440;-2.534;2022-09-14T15:18:08;5.88;;;0.63;;
48987;SDS011;34799;51.440;-2.534;2022-09-14T15:20:35;2.80;;;1.13;;
48987;SDS011;34799;51.440;-2.534;2022-09-14T15:23:03;3.97;;;0.88;;
48987;SDS011;34799;51.440;-2.534;2022-09-14T15:25:30;3.85;;;0.63;;
48987;SDS011;34799;51.440;-2.534;2022-09-14T15:27:57;2.75;;;0.50;;
48987;SDS011;34799;51.440;-2.534;2022-09-14T15:30:24;4.68;;;1.00;;
48987;SDS011;34799;51.440;-2.534;2022-09-14T15:32:51;3.85;;;0.55;;
48987;SDS011;34799;51.440;-2.534;2022-09-14T15:35:20;5.28;;;0.85;;
48987;SDS011;34799;51.440;-2.534;2022-09-14T15:37:47;3.03;;;0.60;;
48987;SDS011;34799;51.440;-2.534;2022-09-14T15:40:14;5.25;;;0.60;;
48987;SDS011;34799;51.440;-2.534;2022-09-14T15:42:42;4.57;;;0.85;;
48987;SDS011;34799;51.440;-2.534;2022-09-14T15:45:09;2.22;;;0.70;;
48987;SDS011;34799;51.440;-2.534;2022-09-14T15:47:39;5.38;;;0.88;;
48987;SDS011;34799;51.440;-2.534;2022-09-14T15:50:07;4.38;;;0.70;;
48987;SDS011;34799;51.440;-2.534;2022-09-14T15:52:36;6.32;;;0.57;;
48987;SDS011;34799;51.440;-2.534;2022-09-14T15:55:05;3.80;;;0.50;;
48987;SDS011;34799;51.440;-2.534;2022-09-14T15:57:34;3.95;;;0.70;;
48987;SDS011;34799;51.440;-2.534;2022-09-14T16:00:03;3.38;;;0.60;;
48987;SDS011;34799;51.440;-2.534;2022-09-14T16:02:39;3.47;;;0.80;;
48987;SDS011;34799;51.440;-2.534;2022-09-14T16:05:07;6.63;;;0.70;;
48987;SDS011;34799;51.440;-2.534;2022-09-14T16:07:34;3.50;;;0.70;;
48987;SDS011;34799;51.440;-2.534;2022-09-14T16:10:01;3.08;;;0.82;;
48987;SDS011;34799;51.440;-2.534;2022-09-14T16:12:28;4.00;;;0.77;;
48987;SDS011;34799;51.440;-2.534;2022-09-14T16:14:55;5.15;;;1.10;;
48987;SDS011;34799;51.440;-2.534;2022-09-14T16:17:23;3.90;;;0.60;;
48987;SDS011;34799;51.440;-2.534;2022-09-14T16:19:50;4.75;;;0.75;;
48987;SDS011;34799;51.440;-2.534;2022-09-14T16:22:17;3.40;;;1.00;;
48987;SDS011;34799;51.440;-2.534;2022-09-14T16:24:45;6.65;;;1.15;;
48987;SDS011;34799;51.440;-2.534;2022-09-14T16:27:11;4.82;;;0.90;;
48987;SDS011;34799;51.440;-2.534;2022-09-14T16:29:38;4.50;;;0.80;;
48987;SDS011;34799;51.440;-2.534;2022-09-14T16:32:07;3.22;;;1.10;;
48987;SDS011;34799;51.440;-2.534;2022-09-14T16:34:34;11.38;;;1.67;;
48987;SDS011;34799;51.440;-2.534;2022-09-14T16:37:01;4.07;;;0.80;;
48987;SDS011;34799;51.440;-2.534;2022-09-14T16:39:29;3.70;;;0.80;;
48987;SDS011;34799;51.440;-2.534;2022-09-14T16:41:58;3.53;;;0.70;;
48987;SDS011;34799;51.440;-2.534;2022-09-14T16:44:26;3.35;;;0.85;;
48987;SDS011;34799;51.440;-2.534;2022-09-14T16:46:54;4.30;;;0.75;;
48987;SDS011;34799;51.440;-2.534;2022-09-14T16:49:24;7.63;;;1.20;;
48987;SDS011;34799;51.440;-2.534;2022-09-14T16:51:53;3.05;;;1.30;;
48987;SDS011;34799;51.440;-2.534;2022-09-14T16:54:21;3.72;;;1.30;;
48987;SDS011;34799;51.440;-2.534;2022-09-14T16:56:52;6.70;;;1.30;;
48987;SDS011;34799;51.440;-2.534;2022-09-14T16:59:23;6.00;;;1.20;;
48987;SDS011;34799;51.440;-2.534;2022-09-14T17:01:51;2.85;;;0.82;;
48987;SDS011;34799;51.440;-2.534;2022-09-14T17:04:20;4.75;;;1.25;;
48987;SDS011;34799;51.440;-2.534;2022-09-14T17:06:48;5.22;;;1.05;;
48987;SDS011;34799;51.440;-2.534;2022-09-14T17:09:19;5.65;;;1.45;;
48987;SDS011;34799;51.440;-2.534;2022-09-14T17:11:48;4.30;;;1.08;;
48987;SDS011;34799;51.440;-2.534;2022-09-14T17:14:18;5.22;;;1.10;;
48987;SDS011;34799;51.440;-2.534;2022-09-14T17:16:46;6.22;;;2.05;;
48987;SDS011;34799;51.440;-2.534;2022-09-14T17:19:14;5.55;;;1.52;;